PHENX84 YCDR-YCAB
Flight info
| Callsign | PHENX84 |
|---|---|
| Flight time | 0h 17m |
| Altitude | 2000 |
| Route | DCT |
| Aircraft | C172/L-SFG/C |
Departure
| Time | 2026-05-04 11:13 |
|---|---|
| Airport | Caloundra Airport (YCDR) |
Arrival
| Time | 2026-05-04 11:31 |
|---|---|
| Airport | Caboolture Airport (YCAB) |
| Time | Latitude | Longitude | Altitude | Speed | Heading |
|---|---|---|---|---|---|
| 2026-05-04 11:10 | -26.79953 | 153.10914 | 25 ft | 0 kts | 326° |
| 2026-05-04 11:12 | -26.80036 | 153.10900 | 30 ft | 0 kts | 145° |
| 2026-05-04 11:12 | -26.80051 | 153.10913 | 31 ft | 9 kts | 142° |
| 2026-05-04 11:12 | -26.80101 | 153.10892 | 29 ft | 9 kts | 236° |
| 2026-05-04 11:12 | -26.80213 | 153.10704 | 24 ft | 55 kts | 237° |
| 2026-05-04 11:13 | -26.80494 | 153.10238 | 112 ft | 79 kts | 234° |
| 2026-05-04 11:13 | -26.80754 | 153.09651 | 279 ft | 87 kts | 248° |
| 2026-05-04 11:13 | -26.81012 | 153.09019 | 511 ft | 86 kts | 238° |
| 2026-05-04 11:13 | -26.81271 | 153.08454 | 794 ft | 81 kts | 240° |
| 2026-05-04 11:14 | -26.81526 | 153.07888 | 1018 ft | 81 kts | 241° |
| 2026-05-04 11:14 | -26.81790 | 153.07297 | 1138 ft | 95 kts | 242° |
| 2026-05-04 11:14 | -26.82119 | 153.06561 | 1138 ft | 114 kts | 242° |
| 2026-05-04 11:16 | -26.84760 | 153.00739 | 1129 ft | 119 kts | 242° |
| 2026-05-04 11:16 | -26.85140 | 152.99916 | 1131 ft | 118 kts | 242° |
| 2026-05-04 11:16 | -26.85510 | 152.99113 | 1121 ft | 114 kts | 242° |
| 2026-05-04 11:17 | -26.85867 | 152.98339 | 1126 ft | 110 kts | 242° |
| 2026-05-04 11:17 | -26.86210 | 152.97589 | 1075 ft | 107 kts | 243° |
| 2026-05-04 11:19 | -26.86460 | 152.92584 | 967 ft | 118 kts | 10° |
| 2026-05-04 11:19 | -26.85785 | 152.93002 | 1107 ft | 107 kts | 50° |
| 2026-05-04 11:19 | -26.85302 | 152.93626 | 1078 ft | 107 kts | 48° |
| 2026-05-04 11:19 | -26.84757 | 152.94258 | 819 ft | 114 kts | 48° |
| 2026-05-04 11:20 | -26.84268 | 152.94780 | 839 ft | 79 kts | 43° |
| 2026-05-04 11:20 | -26.83906 | 152.95251 | 615 ft | 77 kts | 63° |
| 2026-05-04 11:20 | -26.83686 | 152.95760 | 458 ft | 71 kts | 47° |
| 2026-05-04 11:20 | -26.83252 | 152.95978 | 334 ft | 65 kts | 57° |
| 2026-05-04 11:22 | -26.86629 | 152.94012 | 490 ft | 101 kts | 217° |
| 2026-05-04 11:22 | -26.87161 | 152.93449 | 504 ft | 109 kts | 225° |
| 2026-05-04 11:23 | -26.87609 | 152.92758 | 529 ft | 113 kts | 223° |
| 2026-05-04 11:23 | -26.88225 | 152.92206 | 537 ft | 115 kts | 221° |
| 2026-05-04 11:24 | -26.92017 | 152.89375 | 823 ft | 112 kts | 162° |
| 2026-05-04 11:25 | -26.92753 | 152.89698 | 902 ft | 114 kts | 158° |
| 2026-05-04 11:25 | -26.93476 | 152.90030 | 993 ft | 114 kts | 158° |
| 2026-05-04 11:25 | -26.94211 | 152.90361 | 1095 ft | 114 kts | 160° |
| 2026-05-04 11:26 | -26.95837 | 152.90581 | 1136 ft | 122 kts | 176° |
| 2026-05-04 11:27 | -26.99975 | 152.94356 | 1127 ft | 114 kts | 130° |
| 2026-05-04 11:28 | -27.00482 | 152.95038 | 1125 ft | 114 kts | 134° |
| 2026-05-04 11:28 | -27.01071 | 152.95630 | 1129 ft | 114 kts | 139° |
| 2026-05-04 11:28 | -27.01667 | 152.96219 | 1128 ft | 114 kts | 139° |
| 2026-05-04 11:28 | -27.02267 | 152.96810 | 1128 ft | 115 kts | 139° |
| 2026-05-04 11:29 | -27.02866 | 152.97401 | 1128 ft | 115 kts | 139° |
| 2026-05-04 11:29 | -27.03467 | 152.97992 | 1129 ft | 115 kts | 139° |
| 2026-05-04 11:29 | -27.04127 | 152.98344 | 1230 ft | 101 kts | 190° |
| 2026-05-04 11:29 | -27.04701 | 152.97805 | 1097 ft | 114 kts | 228° |
| 2026-05-04 11:31 | -27.07599 | 152.98691 | 42 ft | 24 kts | 124° |
| 2026-05-04 11:33 | -27.07764 | 152.98608 | 42 ft | 0 kts | 258° |